Time;durP1;ratioP1;P1;durP2;ratioP2;P2;SDS_P1;SDS_P2;PMS_P1;PMS_P2;Temp;Humidity;BMP_temperature;BMP_pressure;BME280_temperature;BME280_humidity;BME280_pressure;Samples;Min_cycle;Max_cycle;Signal;HPM_P1;HPM_P2
2022/08/11 00:01:06;;;;;;;3.65;2.45;;;;;;;18.87;53.79;100336.28;5102179;28;20051;-95
2022/08/11 00:03:33;;;;;;;3.28;2.30;;;;;;;18.86;54.06;100339.56;5072239;28;20379;-95
2022/08/11 00:05:59;;;;;;;3.80;2.30;;;;;;;18.90;53.85;100343.75;5064980;28;20050;-82
2022/08/11 00:08:26;;;;;;;4.28;2.40;;;;;;;18.83;54.33;100323.69;5019096;28;20553;-82
2022/08/11 00:10:58;;;;;;;3.55;2.35;;;;;;;18.69;56.30;100353.34;5077405;28;20038;-82
2022/08/11 00:13:33;;;;;;;4.07;2.42;;;;;;;18.67;55.86;100341.06;5090165;28;20136;-82
2022/08/11 00:16:00;;;;;;;4.82;2.22;;;;;;;18.52;58.03;100338.25;5013842;28;20384;-82
2022/08/11 00:18:26;;;;;;;3.67;2.75;;;;;;;18.38;58.13;100338.97;5012166;28;20134;-82
2022/08/11 00:20:57;;;;;;;5.07;2.15;;;;;;;18.22;58.61;100348.66;5065575;28;20074;-82
2022/08/11 00:23:24;;;;;;;4.38;2.47;;;;;;;18.22;58.18;100353.50;5020506;28;20042;-82
2022/08/11 00:25:53;;;;;;;4.50;2.40;;;;;;;18.06;58.97;100351.91;5081265;28;20067;-94
2022/08/11 00:28:32;;;;;;;4.13;2.40;;;;;;;18.05;59.17;100353.16;5111408;27;20042;-95
2022/08/11 00:31:01;;;;;;;3.47;2.40;;;;;;;17.99;59.03;100352.31;5013662;28;20052;-93
2022/08/11 00:33:39;;;;;;;5.85;2.50;;;;;;;18.04;58.53;100346.78;5084947;28;20046;-94
2022/08/11 00:36:06;;;;;;;3.72;2.15;;;;;;;18.04;58.26;100346.00;5079101;28;20071;-93
2022/08/11 00:38:35;;;;;;;3.63;2.35;;;;;;;18.01;59.35;100352.56;5080185;28;20125;-94
2022/08/11 00:41:14;;;;;;;3.35;2.35;;;;;;;18.01;59.30;100349.78;5016870;28;20053;-94
2022/08/11 00:44:25;;;;;;;3.60;2.30;;;;;;;18.03;58.71;100347.28;5012181;28;20056;-82
2022/08/11 00:47:00;;;;;;;3.42;2.30;;;;;;;18.12;58.04;100344.38;5078982;28;20445;-82
2022/08/11 00:49:41;;;;;;;4.60;2.72;;;;;;;18.16;58.40;100339.34;5011786;28;20119;-82
2022/08/11 00:52:29;;;;;;;4.80;2.50;;;;;;;18.10;58.87;100344.09;5012484;28;20084;-82
2022/08/11 00:55:13;;;;;;;3.40;2.50;;;;;;;18.07;58.99;100343.03;5079545;28;20042;-82
2022/08/11 00:57:56;;;;;;;6.53;3.00;;;;;;;18.08;59.30;100338.16;5009456;28;20137;-81
2022/08/11 01:00:23;;;;;;;5.67;2.63;;;;;;;17.90;60.83;100350.34;5088067;28;20522;-82
2022/08/11 01:03:13;;;;;;;5.93;2.50;;;;;;;17.88;60.17;100347.22;5354878;22;20044;-84
2022/08/11 01:06:03;;;;;;;4.10;2.33;;;;;;;17.86;60.96;100346.16;5111012;28;20020;-82
2022/08/11 01:08:54;;;;;;;4.10;2.65;;;;;;;17.77;61.14;100349.81;5099494;28;20083;-82
2022/08/11 01:11:20;;;;;;;5.80;2.53;;;;;;;17.79;60.55;100355.72;5113125;28;20030;-82
2022/08/11 01:14:09;;;;;;;4.97;2.60;;;;;;;17.80;60.54;100354.47;5102416;28;20040;-83
2022/08/11 01:17:29;;;;;;;4.53;2.60;;;;;;;17.83;60.57;100352.75;5105436;28;20036;-82
2022/08/11 01:20:14;;;;;;;7.18;2.60;;;;;;;17.87;59.99;100351.31;5062989;28;20052;-82
2022/08/11 01:23:05;;;;;;;5.57;2.45;;;;;;;17.93;58.74;100345.78;5088442;28;20402;-82
2022/08/11 01:26:12;;;;;;;3.28;2.50;;;;;;;17.95;59.27;100354.53;5074719;28;20438;-82
2022/08/11 01:28:56;;;;;;;4.25;2.60;;;;;;;17.95;59.38;100346.88;5036828;28;20040;-82
2022/08/11 01:31:45;;;;;;;3.97;2.50;;;;;;;17.89;59.14;100342.38;5086830;28;20087;-82
2022/08/11 01:34:25;;;;;;;4.80;2.78;;;;;;;17.86;59.27;100344.13;5086103;28;20047;-83
2022/08/11 01:37:40;;;;;;;3.35;2.40;;;;;;;17.88;59.12;100346.44;5078205;28;20454;-83
2022/08/11 01:40:19;;;;;;;8.50;2.88;;;;;;;17.83;59.66;100344.31;5030987;28;20132;-83
2022/08/11 01:46:10;;;;;;;4.13;2.50;;;;;;;17.86;58.91;100337.75;5088662;28;20032;-83
2022/08/11 01:48:49;;;;;;;4.18;2.45;;;;;;;17.80;59.38;100337.63;5077417;28;20122;-83
2022/08/11 01:51:38;;;;;;;3.25;2.60;;;;;;;17.69;60.61;100338.19;5073975;28;20044;-83
2022/08/11 01:54:47;;;;;;;5.28;2.70;;;;;;;17.55;62.77;100329.69;5086994;28;20056;-83
2022/08/11 01:57:34;;;;;;;4.40;2.63;;;;;;;17.37;63.90;100344.59;5082801;28;20044;-83
2022/08/11 02:00:10;;;;;;;3.83;2.40;;;;;;;17.28;63.97;100327.81;5093135;28;20551;-83
2022/08/11 02:03:18;;;;;;;3.88;2.50;;;;;;;17.21;64.55;100342.19;5059108;28;20064;-83
2022/08/11 02:06:01;;;;;;;4.70;2.60;;;;;;;17.15;64.50;100336.44;4988966;28;20061;-84
2022/08/11 02:08:27;;;;;;;4.63;2.60;;;;;;;17.08;64.29;100330.41;5056146;28;20133;-83
2022/08/11 02:11:35;;;;;;;3.65;2.72;;;;;;;16.97;65.20;100330.94;5048605;28;20054;-83
2022/08/11 02:14:19;;;;;;;4.55;2.72;;;;;;;16.84;65.19;100329.59;4976066;28;20054;-83
2022/08/11 02:17:01;;;;;;;3.75;2.60;;;;;;;16.76;66.28;100327.13;5055106;28;20539;-83
2022/08/11 02:25:43;;;;;;;4.18;2.40;;;;;;;16.61;67.56;100331.84;5041937;28;20485;-83
2022/08/11 02:28:18;;;;;;;3.60;2.50;;;;;;;16.66;66.75;100330.44;4987790;28;21816;-83
2022/08/11 02:33:48;;;;;;;3.55;2.53;;;;;;;16.64;67.08;100325.31;5036491;28;20095;-83
2022/08/11 02:36:22;;;;;;;6.47;2.95;;;;;;;16.59;67.44;100319.56;5051964;28;20035;-83
2022/08/11 02:38:56;;;;;;;3.90;2.80;;;;;;;16.57;67.57;100322.84;5037838;28;20054;-83
2022/08/11 02:44:31;;;;;;;3.28;2.70;;;;;;;16.49;67.29;100327.19;5040270;28;19929;-83
2022/08/11 02:47:05;;;;;;;5.70;2.85;;;;;;;16.41;68.61;100334.38;5050233;28;20409;-83
2022/08/11 02:49:55;;;;;;;4.40;2.60;;;;;;;16.37;68.67;100330.97;4979431;28;20191;-83
2022/08/11 02:52:48;;;;;;;5.57;2.85;;;;;;;16.35;68.88;100330.63;5043589;28;20537;-83
2022/08/11 02:55:31;;;;;;;4.00;2.83;;;;;;;16.25;69.14;100334.72;4977624;28;20081;-83
2022/08/11 02:58:19;;;;;;;4.25;2.95;;;;;;;16.23;69.76;100337.19;5039790;28;20114;-83
2022/08/11 03:01:20;;;;;;;6.22;3.28;;;;;;;16.26;68.83;100331.41;4984411;28;20066;-83
2022/08/11 03:04:08;;;;;;;5.45;2.65;;;;;;;16.07;70.18;100331.91;4987463;28;20057;-83
2022/08/11 03:06:45;;;;;;;3.72;2.97;;;;;;;16.06;70.67;100330.34;5035214;28;20107;-83
2022/08/11 03:09:36;;;;;;;5.88;3.20;;;;;;;15.95;71.75;100330.06;5031220;28;20493;-83
2022/08/11 03:18:25;;;;;;;4.78;2.88;;;;;;;15.79;71.90;100337.53;5026575;28;20047;-83
2022/08/11 03:21:19;;;;;;;4.32;2.90;;;;;;;15.78;72.23;100335.19;5039662;28;20058;-83
2022/08/11 03:23:54;;;;;;;5.13;2.95;;;;;;;15.73;71.74;100319.78;4969629;28;20471;-83
2022/08/11 03:26:46;;;;;;;6.70;2.97;;;;;;;15.81;72.38;100332.22;4984187;28;20132;-83
2022/08/11 03:29:25;;;;;;;3.60;3.05;;;;;;;15.74;72.90;100324.16;5051132;28;20061;-83
2022/08/11 03:32:18;;;;;;;5.65;3.00;;;;;;;15.82;72.46;100344.19;5035648;28;20042;-83
2022/08/11 03:34:45;;;;;;;4.72;3.13;;;;;;;15.83;71.67;100340.16;4976659;28;20412;-83
2022/08/11 03:40:15;;;;;;;9.13;2.97;;;;;;;15.80;72.14;100344.69;5042900;28;20433;-83
2022/08/11 03:42:47;;;;;;;10.98;3.08;;;;;;;15.74;73.19;100340.94;5051413;28;20414;-83
2022/08/11 03:45:56;;;;;;;6.97;3.00;;;;;;;15.68;73.21;100345.59;4978667;28;20197;-83
2022/08/11 03:48:47;;;;;;;7.30;3.33;;;;;;;15.74;72.79;100349.31;4978366;28;20046;-81
2022/08/11 03:51:28;;;;;;;5.97;3.20;;;;;;;15.68;74.82;100345.59;4972455;28;20057;-81
2022/08/11 03:54:39;;;;;;;7.82;3.30;;;;;;;15.65;74.27;100345.75;5052301;28;20125;-81
2022/08/11 03:57:23;;;;;;;5.13;3.13;;;;;;;15.55;73.73;100360.94;4975148;28;20047;-81
2022/08/11 04:00:16;;;;;;;3.97;2.97;;;;;;;15.48;74.28;100347.25;4971021;28;20038;-81
2022/08/11 04:03:26;;;;;;;4.33;3.17;;;;;;;15.51;74.00;100349.91;4969663;28;20043;-81
2022/08/11 04:06:14;;;;;;;3.90;3.08;;;;;;;15.54;74.34;100346.19;4978399;28;20077;-82
2022/08/11 04:09:04;;;;;;;3.58;2.70;;;;;;;15.55;73.61;100344.94;5035951;28;20117;-82
2022/08/11 04:11:51;;;;;;;5.50;3.20;;;;;;;15.62;73.57;100344.66;5048962;28;20412;-82
2022/08/11 04:17:34;;;;;;;7.82;3.22;;;;;;;15.61;73.74;100345.88;4972687;28;20038;-82
2022/08/11 04:20:38;;;;;;;5.07;3.20;;;;;;;15.61;73.73;100351.47;4984022;28;20057;-82
2022/08/11 04:23:19;;;;;;;;;;;;;;;15.67;74.93;100354.44;5041807;28;20070;-82
2022/08/11 04:26:03;;;;;;;5.63;3.42;;;;;;;15.66;75.24;100364.84;4978507;28;19922;-82
2022/08/11 04:28:32;;;;;;;;;;;;;;;15.63;75.05;100359.41;4987083;28;20121;-82
2022/08/11 04:31:29;;;;;;;5.78;3.15;;;;;;;15.53;75.56;100355.81;4978982;28;19932;-82
2022/08/11 04:34:32;;;;;;;5.00;3.42;;;;;;;15.58;74.72;100352.41;4983225;28;20086;-82
2022/08/11 04:39:59;;;;;;;5.45;3.50;;;;;;;15.73;75.42;100364.53;4985105;28;20477;-83
2022/08/11 04:46:05;;;;;;;5.78;3.03;;;;;;;15.93;74.23;100371.72;4972229;28;20473;-82
2022/08/11 05:07:11;;;;;;;5.40;3.20;;;;;;;17.06;69.46;100372.94;4982784;28;20116;-82
2022/08/11 05:09:43;;;;;;;4.85;3.00;;;;;;;17.24;69.27;100377.69;4984571;28;20050;-82
2022/08/11 05:12:29;;;;;;;3.80;2.88;;;;;;;17.42;69.14;100377.59;4987625;28;20047;-82
2022/08/11 05:35:07;;;;;;;5.60;2.72;;;;;;;19.17;59.10;100381.97;5047262;28;20089;-82
2022/08/11 05:37:38;;;;;;;5.38;2.85;;;;;;;19.36;58.79;100385.34;5057751;28;20030;-83
2022/08/11 05:56:53;;;;;;;4.30;3.15;;;;;;;19.98;56.15;100382.88;5047586;28;20141;-83
2022/08/11 05:59:20;;;;;;;6.65;3.10;;;;;;;20.20;55.87;100388.00;5057265;28;20034;-83
2022/08/11 06:01:47;;;;;;;6.20;3.20;;;;;;;20.42;55.11;100381.88;4990162;28;20055;-83
2022/08/11 06:04:19;;;;;;;6.97;3.20;;;;;;;20.58;54.36;100388.94;4989504;28;20148;-82
2022/08/11 06:06:58;;;;;;;5.90;2.83;;;;;;;20.82;53.84;100376.09;4990176;28;20042;-83
2022/08/11 06:09:43;;;;;;;4.90;2.88;;;;;;;21.02;52.77;100383.69;5057015;28;20042;-82
2022/08/11 06:12:21;;;;;;;4.32;3.25;;;;;;;21.24;52.24;100383.88;4970437;28;20050;-82
2022/08/11 06:14:49;;;;;;;7.03;3.30;;;;;;;21.42;51.72;100373.47;4972930;28;20047;-82
2022/08/11 06:17:27;;;;;;;5.60;2.80;;;;;;;21.63;51.02;100386.97;5037769;28;20046;-82
2022/08/11 06:20:02;;;;;;;7.35;2.72;;;;;;;21.77;50.19;100390.88;5052182;28;20049;-82
2022/08/11 06:22:28;;;;;;;6.03;3.17;;;;;;;21.83;49.79;100383.22;5055801;28;20042;-82
2022/08/11 06:25:03;;;;;;;6.90;2.90;;;;;;;21.92;50.07;100385.06;5050142;28;20418;-82
2022/08/11 06:27:31;;;;;;;7.88;2.90;;;;;;;21.81;50.11;100386.53;5047736;28;20042;-83
2022/08/11 06:29:57;;;;;;;6.85;3.05;;;;;;;22.00;49.07;100383.31;4985597;28;20031;-82
2022/08/11 06:32:32;;;;;;;6.43;3.10;;;;;;;22.07;48.63;100397.72;5036869;28;20114;-83
2022/08/11 06:35:16;;;;;;;7.43;2.72;;;;;;;22.16;48.79;100382.59;4970134;28;20061;-83
2022/08/11 06:38:03;;;;;;;5.45;3.08;;;;;;;22.20;48.64;100385.94;4984241;28;20076;-83
2022/08/11 06:44:04;;;;;;;3.92;2.75;;;;;;;22.75;47.83;100394.56;5056602;28;20505;-82
2022/08/11 06:46:38;;;;;;;4.05;2.42;;;;;;;23.09;46.55;100388.91;4989317;28;20050;-83
2022/08/11 06:52:00;;;;;;;4.80;2.50;;;;;;;23.60;44.21;100379.06;5046278;28;20095;-82
2022/08/11 06:54:28;;;;;;;4.95;2.50;;;;;;;23.83;44.27;100383.38;4979234;28;20100;-82
2022/08/11 07:02:34;;;;;;;7.38;2.70;;;;;;;23.83;43.66;100386.19;4984108;28;20038;-82
2022/08/11 07:05:03;;;;;;;3.85;2.70;;;;;;;23.98;43.66;100380.97;5043439;28;20287;-82
2022/08/11 07:16:36;;;;;;;3.42;2.55;;;;;;;24.97;41.59;100370.34;5035730;28;20458;-83
2022/08/11 07:30:10;;;;;;;7.50;2.67;;;;;;;25.56;40.05;100374.44;5042369;28;20043;-83
2022/08/11 07:32:56;;;;;;;5.93;2.47;;;;;;;25.64;39.08;100358.34;4987257;28;20440;-83
2022/08/11 07:35:38;;;;;;;5.35;2.38;;;;;;;25.87;38.90;100362.47;5044440;28;20042;-83
2022/08/11 07:38:05;;;;;;;3.53;2.67;;;;;;;25.59;38.96;100362.03;5047621;28;20043;-81
2022/08/11 07:40:31;;;;;;;5.82;2.40;;;;;;;25.37;39.14;100363.00;5046620;28;20039;-81
2022/08/11 07:42:58;;;;;;;5.13;2.17;;;;;;;25.53;38.94;100352.78;5055553;28;20119;-81
2022/08/11 07:53:37;;;;;;;6.50;2.60;;;;;;;26.55;38.15;100354.56;5044086;28;20043;-81
2022/08/11 07:56:07;;;;;;;4.60;2.28;;;;;;;26.62;36.42;100362.47;5040457;28;20050;-81
2022/08/11 08:17:57;;;;;;;3.20;2.00;;;;;;;27.60;34.04;100354.84;4987012;28;20052;-84
2022/08/11 08:20:48;;;;;;;3.72;2.20;;;;;;;27.77;33.94;100346.72;5043841;28;20043;-85
2022/08/11 08:23:14;;;;;;;4.75;2.05;;;;;;;27.53;34.46;100358.34;4971848;28;20457;-84
2022/08/11 08:25:41;;;;;;;6.18;2.00;;;;;;;27.15;34.86;100359.81;5044404;28;20052;-84
2022/08/11 08:28:12;;;;;;;4.03;2.13;;;;;;;26.96;35.16;100364.81;5018425;28;20042;-84
2022/08/11 08:30:46;;;;;;;4.57;2.20;;;;;;;26.96;35.95;100356.25;4966662;28;20038;-84
2022/08/11 08:33:18;;;;;;;5.03;2.00;;;;;;;27.08;36.25;100349.06;4973193;28;20515;-84
2022/08/11 08:35:45;;;;;;;3.28;2.05;;;;;;;27.35;35.09;100357.09;5031644;28;20046;-84
2022/08/11 08:38:12;;;;;;;2.72;2.13;;;;;;;27.15;35.61;100354.09;5046317;28;20047;-84
2022/08/11 08:40:41;;;;;;;4.07;2.00;;;;;;;27.16;34.63;100362.13;4975795;28;20035;-84
2022/08/11 08:43:09;;;;;;;2.67;2.00;;;;;;;26.78;38.03;100344.34;5037776;28;20560;-84
2022/08/11 08:45:35;;;;;;;3.42;2.00;;;;;;;26.71;35.63;100356.38;4972272;28;20112;-84
2022/08/11 08:48:10;;;;;;;7.80;2.00;;;;;;;26.95;36.47;100352.66;5050217;28;20508;-84
2022/08/11 08:53:30;;;;;;;5.32;2.40;;;;;;;27.61;34.12;100339.28;4976153;28;20035;-83
2022/08/11 08:55:58;;;;;;;7.82;2.25;;;;;;;27.57;34.25;100341.69;5045271;28;20072;-84
2022/08/11 08:58:24;;;;;;;3.42;2.10;;;;;;;27.58;35.62;100334.66;5030831;28;20039;-83
2022/08/11 09:00:53;;;;;;;3.60;1.90;;;;;;;27.81;34.46;100330.06;5049698;28;20369;-83
2022/08/11 09:03:19;;;;;;;4.80;2.03;;;;;;;27.77;34.93;100334.56;5029249;28;20050;-83
2022/08/11 09:05:46;;;;;;;4.20;2.33;;;;;;;26.99;35.17;100335.25;5042885;28;20448;-83
2022/08/11 09:08:12;;;;;;;3.95;2.10;;;;;;;27.39;36.54;100331.13;5054438;28;20049;-84
2022/08/11 09:10:37;;;;;;;2.55;1.83;;;;;;;27.99;34.45;100333.28;5031671;28;20396;-83
2022/08/11 09:13:04;;;;;;;4.03;1.92;;;;;;;27.94;33.61;100337.81;4976652;28;20409;-85
2022/08/11 09:15:30;;;;;;;3.78;2.00;;;;;;;28.03;34.47;100328.03;5038179;28;20049;-84
2022/08/11 09:18:04;;;;;;;4.18;2.00;;;;;;;28.00;35.60;100321.34;5045464;28;20192;-83
2022/08/11 09:20:35;;;;;;;3.03;2.08;;;;;;;28.07;34.59;100328.44;4976944;28;20049;-83
2022/08/11 09:28:43;;;;;;;3.70;2.10;;;;;;;28.84;32.58;100317.31;5050791;28;20050;-83
2022/08/11 09:31:11;;;;;;;4.38;2.00;;;;;;;28.98;32.38;100324.50;4977992;28;20046;-83
2022/08/11 09:33:36;;;;;;;3.25;2.10;;;;;;;28.66;32.54;100309.72;5026319;28;20096;-85
2022/08/11 09:40:27;;;;;;;6.00;2.10;;;;;;;28.76;33.05;100313.63;5066029;28;20047;-82
2022/08/11 09:41:34;;;;;;;3.40;2.20;;;;;;;28.83;32.34;100297.91;4979210;28;20055;-84
2022/08/11 09:46:45;;;;;;;5.18;2.72;;;;;;;28.49;35.10;100295.88;4973760;28;20122;-82
2022/08/11 09:49:11;;;;;;;3.42;2.40;;;;;;;27.91;34.15;100292.50;4975128;28;20145;-82
2022/08/11 09:51:36;;;;;;;5.70;2.25;;;;;;;27.72;34.59;100298.38;5041491;28;20034;-82
2022/08/11 09:54:05;;;;;;;5.10;2.40;;;;;;;27.30;34.48;100298.16;5037610;28;20047;-82
2022/08/11 09:59:17;;;;;;;4.82;3.78;;;;;;;27.54;36.05;100282.94;5029621;28;20054;-82
2022/08/11 10:01:45;;;;;;;4.63;2.67;;;;;;;28.11;33.93;100274.72;5034253;28;20047;-83
2022/08/11 10:04:16;;;;;;;4.75;1.85;;;;;;;28.14;32.91;100276.50;5030369;28;20405;-83
2022/08/11 10:07:09;;;;;;;4.25;2.10;;;;;;;27.77;34.20;100284.00;5053624;28;20038;-83
2022/08/11 10:09:39;;;;;;;2.80;2.03;;;;;;;27.77;33.16;100277.53;5037260;28;20027;-83
2022/08/11 10:12:27;;;;;;;3.95;2.40;;;;;;;27.90;33.61;100273.91;4971121;28;20039;-83
2022/08/11 10:20:33;;;;;;;3.20;1.90;;;;;;;29.02;31.45;100272.75;5025223;28;20047;-83
2022/08/11 10:28:27;;;;;;;4.03;2.22;;;;;;;28.73;32.21;100261.28;5037911;28;20046;-83
2022/08/11 10:34:00;;;;;;;6.15;2.30;;;;;;;28.94;31.17;100260.50;5012220;28;20505;-83
2022/08/11 10:36:49;;;;;;;3.35;2.10;;;;;;;28.91;30.79;100256.69;5047374;28;20118;-83
2022/08/11 10:39:17;;;;;;;3.28;2.20;;;;;;;29.33;30.79;100253.72;4988808;28;20048;-83
2022/08/11 10:44:37;;;;;;;4.95;2.10;;;;;;;29.98;29.74;100247.34;5035636;28;20058;-83
2022/08/11 10:51:11;;;;;;;4.22;2.10;;;;;;;29.35;30.51;100253.94;5030977;28;20485;-83
2022/08/11 11:00:50;;;;;;;4.53;2.20;;;;;;;27.59;32.66;100233.63;5033709;28;20050;-82
2022/08/11 11:03:16;;;;;;;5.80;2.40;;;;;;;27.55;32.49;100247.44;4986526;28;20045;-83
2022/08/11 11:05:43;;;;;;;6.30;3.15;;;;;;;27.48;33.11;100233.09;5048870;28;20409;-84
2022/08/11 11:10:56;;;;;;;6.43;2.80;;;;;;;27.95;33.36;100218.81;5058156;28;20042;-84
2022/08/11 11:18:51;;;;;;;3.30;2.10;;;;;;;29.10;29.96;100216.44;4987252;28;20042;-84
2022/08/11 11:21:18;;;;;;;4.50;2.03;;;;;;;29.03;30.02;100206.50;5049713;28;20054;-84
2022/08/11 11:24:36;;;;;;;6.22;2.10;;;;;;;28.87;29.72;100215.53;5037167;28;20047;-84
2022/08/11 11:27:15;;;;;;;4.78;2.35;;;;;;;29.45;32.49;100201.41;4982899;28;20134;-84
2022/08/11 11:29:54;;;;;;;3.30;1.95;;;;;;;29.74;29.86;100204.16;5046716;28;20478;-84
2022/08/11 11:32:20;;;;;;;3.97;2.38;;;;;;;29.63;29.16;100206.06;5043761;28;20046;-84
2022/08/11 11:35:05;;;;;;;4.50;2.33;;;;;;;28.77;30.60;100200.22;4973215;28;20054;-84
2022/08/11 11:37:35;;;;;;;3.75;1.90;;;;;;;28.41;31.01;100191.53;4988737;28;20042;-84
2022/08/11 11:40:04;;;;;;;2.78;2.17;;;;;;;28.06;31.81;100196.53;4986457;28;20057;-83
2022/08/11 11:42:30;;;;;;;2.80;2.20;;;;;;;28.07;32.21;100198.03;5055228;28;20065;-83
2022/08/11 11:44:56;;;;;;;3.20;2.08;;;;;;;28.21;32.53;100184.53;4988307;28;20474;-84
2022/08/11 11:47:22;;;;;;;4.15;2.35;;;;;;;28.27;32.27;100193.69;5055333;28;20047;-84
2022/08/11 11:49:48;;;;;;;2.70;2.00;;;;;;;28.34;32.03;100193.03;5049556;28;20103;-85
2022/08/11 11:52:17;;;;;;;3.55;2.30;;;;;;;28.11;32.20;100189.94;4986334;28;20061;-85
2022/08/11 11:54:43;;;;;;;3.60;2.30;;;;;;;27.99;31.81;100187.88;4988323;28;20044;-84
2022/08/11 12:02:39;;;;;;;3.97;2.15;;;;;;;27.89;32.92;100176.22;4980612;28;20035;-84
2022/08/11 12:05:07;;;;;;;5.07;2.13;;;;;;;27.91;31.76;100175.63;5045488;28;20043;-83
2022/08/11 12:10:17;;;;;;;3.53;2.20;;;;;;;27.83;33.41;100164.94;5039722;28;20039;-87
2022/08/11 12:15:28;;;;;;;2.58;1.98;;;;;;;27.82;33.10;100171.94;5050572;28;20465;-84
2022/08/11 12:17:55;;;;;;;3.08;1.98;;;;;;;27.86;33.26;100165.16;5059367;28;20057;-84
2022/08/11 12:20:21;;;;;;;5.82;2.50;;;;;;;28.13;31.58;100166.56;4992390;28;20627;-85
2022/08/11 12:28:17;;;;;;;4.55;1.92;;;;;;;28.07;32.56;100152.41;4975937;28;20132;-85
2022/08/11 12:30:46;;;;;;;4.22;2.17;;;;;;;28.08;31.96;100159.66;5041795;28;20073;-85
2022/08/11 12:33:12;;;;;;;3.65;2.10;;;;;;;28.14;32.54;100153.84;5037562;28;20043;-85
2022/08/11 12:35:38;;;;;;;4.03;2.95;;;;;;;27.95;31.91;100156.09;5038893;28;20065;-85
2022/08/11 12:38:05;;;;;;;3.30;2.10;;;;;;;28.07;31.35;100148.81;5042591;28;20027;-85
2022/08/11 12:46:03;;;;;;;2.97;1.90;;;;;;;28.16;31.55;100136.94;4975807;28;20039;-85
2022/08/11 12:54:21;;;;;;;3.15;2.10;;;;;;;27.54;31.89;100134.78;5028667;28;20509;-85
2022/08/11 13:05:07;;;;;;;4.07;2.15;;;;;;;28.41;31.46;100117.38;5048015;28;20202;-86
2022/08/11 13:07:33;;;;;;;3.00;2.10;;;;;;;28.56;30.39;100109.66;4980857;28;20517;-85
2022/08/11 13:10:02;;;;;;;2.88;2.08;;;;;;;28.63;29.86;100111.81;5050022;28;20049;-85
2022/08/11 13:12:47;;;;;;;3.65;2.05;;;;;;;28.93;29.69;100105.53;4971649;28;20097;-86
2022/08/11 13:15:19;;;;;;;5.03;2.00;;;;;;;28.88;29.03;100097.88;5034263;28;20235;-85
2022/08/11 13:17:47;;;;;;;4.22;1.95;;;;;;;28.86;30.07;100103.41;5060185;28;20080;-85
2022/08/11 13:20:16;;;;;;;5.10;2.47;;;;;;;28.33;30.40;100110.84;5058427;28;20035;-85
2022/08/11 13:22:44;;;;;;;3.33;2.08;;;;;;;27.67;30.97;100106.25;4996202;28;20138;-85
2022/08/11 13:25:12;;;;;;;3.13;2.00;;;;;;;27.38;31.53;100095.28;4994528;28;20138;-85
2022/08/11 13:27:38;;;;;;;2.13;1.80;;;;;;;27.21;31.19;100089.94;4991350;28;20042;-86
2022/08/11 13:32:48;;;;;;;3.60;2.00;;;;;;;26.61;33.11;100096.34;4975429;28;20043;-86
2022/08/11 13:35:14;;;;;;;3.10;2.05;;;;;;;26.69;31.85;100102.91;4973216;28;20567;-85
2022/08/11 13:37:43;;;;;;;2.58;1.80;;;;;;;26.78;32.00;100105.31;5049008;28;20019;-85
2022/08/11 13:40:10;;;;;;;2.97;2.13;;;;;;;26.85;32.12;100093.28;4989943;28;20452;-86
2022/08/11 13:42:37;;;;;;;2.45;1.98;;;;;;;26.76;31.94;100090.09;5059724;28;20046;-86
2022/08/11 13:45:03;;;;;;;3.45;2.13;;;;;;;26.93;31.66;100092.63;5061587;28;20039;-86
2022/08/11 13:47:29;;;;;;;3.28;1.85;;;;;;;27.21;30.77;100087.09;4992478;28;20528;-85
2022/08/11 13:49:54;;;;;;;4.72;2.10;;;;;;;27.68;30.37;100093.53;5060887;28;20039;-85
2022/08/11 13:52:20;;;;;;;2.47;1.90;;;;;;;28.02;29.46;100087.75;4978147;28;20031;-85
2022/08/11 13:54:47;;;;;;;7.60;2.10;;;;;;;28.26;29.22;100078.09;5047110;28;20051;-84
2022/08/11 13:57:14;;;;;;;3.63;2.10;;;;;;;28.52;28.90;100077.09;5060110;28;20082;-84
2022/08/11 13:59:40;;;;;;;3.95;1.90;;;;;;;28.71;28.98;100077.66;4992196;28;20516;-85
2022/08/11 14:02:12;;;;;;;5.35;2.00;;;;;;;28.96;28.88;100080.78;4974584;28;20043;-85
2022/08/11 14:04:53;;;;;;;3.22;1.90;;;;;;;28.64;28.75;100064.06;5040077;28;20051;-86
2022/08/11 14:07:21;;;;;;;2.70;1.80;;;;;;;28.54;31.22;100066.69;5052436;28;20062;-84
2022/08/11 14:09:48;;;;;;;5.50;1.90;;;;;;;28.58;28.70;100058.53;4985685;28;20133;-84
2022/08/11 14:15:06;;;;;;;2.97;1.90;;;;;;;28.33;29.12;100057.41;4989220;28;20318;-82
2022/08/11 14:17:33;;;;;;;4.15;2.00;;;;;;;28.13;29.02;100052.50;4977266;28;20484;-82
2022/08/11 14:20:03;;;;;;;4.25;1.80;;;;;;;28.37;27.84;100043.56;5035204;28;20099;-82
2022/08/11 14:22:30;;;;;;;3.30;1.95;;;;;;;28.81;27.47;100052.19;5067030;28;20085;-82
2022/08/11 14:24:56;;;;;;;5.05;1.80;;;;;;;28.99;27.54;100045.41;5035434;28;20046;-82
2022/08/11 14:27:25;;;;;;;2.60;1.90;;;;;;;29.07;26.91;100051.91;5019121;28;20101;-82
2022/08/11 14:29:52;;;;;;;5.30;1.90;;;;;;;28.67;28.88;100042.97;4969240;28;20118;-82
2022/08/11 14:32:19;;;;;;;4.53;2.05;;;;;;;28.73;29.53;100049.28;5036759;28;20053;-83
2022/08/11 14:34:45;;;;;;;3.67;1.98;;;;;;;28.43;28.87;100049.13;5051005;28;20047;-82
2022/08/11 14:37:18;;;;;;;3.47;1.88;;;;;;;28.15;29.55;100049.84;5057088;28;20053;-82
2022/08/11 14:39:46;;;;;;;3.17;1.92;;;;;;;27.86;30.52;100045.44;5040098;28;20939;-82
2022/08/11 14:47:48;;;;;;;3.72;1.88;;;;;;;28.03;30.71;100037.94;4971178;28;20051;-82
2022/08/11 14:50:23;;;;;;;3.50;2.00;;;;;;;28.26;29.64;100038.16;5042533;28;20050;-82
2022/08/11 14:52:49;;;;;;;4.45;1.80;;;;;;;28.54;29.06;100051.66;4983614;28;20480;-82
2022/08/11 14:58:01;;;;;;;3.58;2.15;;;;;;;28.71;27.74;100035.56;5046284;28;20034;-82
2022/08/11 15:00:27;;;;;;;3.42;1.98;;;;;;;28.83;27.84;100029.56;5053568;28;20038;-82
2022/08/11 15:03:08;;;;;;;6.30;2.00;;;;;;;29.00;28.11;100033.41;4988995;28;20531;-83
2022/08/11 15:05:35;;;;;;;5.63;1.92;;;;;;;28.77;28.56;100029.72;5027924;28;20533;-82
2022/08/11 15:08:01;;;;;;;5.82;2.17;;;;;;;28.50;29.56;100029.19;4970816;28;20034;-82
2022/08/11 15:10:27;;;;;;;3.90;2.03;;;;;;;28.39;29.57;100034.44;5036474;28;20524;-82
2022/08/11 15:12:52;;;;;;;2.97;1.92;;;;;;;28.17;30.05;100030.09;5036175;28;20122;-82
2022/08/11 15:18:05;;;;;;;6.15;2.00;;;;;;;28.34;29.37;100032.50;4969860;28;20434;-82
2022/08/11 15:26:03;;;;;;;3.92;2.00;;;;;;;28.41;28.69;100032.53;4969680;28;20043;-82
2022/08/11 15:48:55;;;;;;;3.05;1.75;;;;;;;27.38;30.19;100002.78;5022858;28;20203;-83
2022/08/11 15:51:26;;;;;;;3.60;1.50;;;;;;;27.42;30.27;100005.28;4999600;28;20153;-83
2022/08/11 15:53:53;;;;;;;2.75;1.83;;;;;;;27.38;31.06;100002.78;4981506;28;20059;-83
2022/08/11 15:56:24;;;;;;;4.75;2.00;;;;;;;27.23;31.33;99993.34;5035755;28;20446;-83
2022/08/11 16:04:25;;;;;;;3.85;1.67;;;;;;;27.00;31.85;99998.03;5045491;28;20054;-84
2022/08/11 16:07:06;;;;;;;3.55;1.70;;;;;;;27.02;32.33;99996.16;5049280;28;20035;-83
2022/08/11 16:09:36;;;;;;;3.67;2.10;;;;;;;27.00;31.76;99998.03;4968957;28;20047;-83
2022/08/11 16:12:07;;;;;;;3.20;2.50;;;;;;;26.92;31.87;99988.63;5039445;28;20067;-83
2022/08/11 16:17:20;;;;;;;3.75;1.98;;;;;;;26.93;32.28;99990.16;5037168;28;20066;-83
2022/08/11 16:19:48;;;;;;;4.90;2.17;;;;;;;26.86;32.26;99998.06;5054989;28;20134;-83
2022/08/11 16:22:20;;;;;;;3.08;1.90;;;;;;;26.89;32.29;99996.94;4970586;28;20031;-83
2022/08/11 16:24:47;;;;;;;2.53;1.90;;;;;;;26.78;32.70;99991.47;5052487;28;20126;-83
2022/08/11 16:27:13;;;;;;;3.78;1.80;;;;;;;26.77;32.69;99997.75;4987911;28;20046;-83
2022/08/11 16:29:45;;;;;;;2.88;1.70;;;;;;;26.80;33.03;100000.25;5038611;28;20470;-83
2022/08/11 16:32:16;;;;;;;5.07;2.08;;;;;;;26.92;32.84;100000.03;5053039;28;20051;-83
2022/08/11 16:40:21;;;;;;;3.05;1.90;;;;;;;26.74;33.64;99993.13;5026028;28;20042;-83
2022/08/11 16:48:19;;;;;;;4.13;2.20;;;;;;;26.50;35.56;99999.84;4977409;28;20180;-90
2022/08/11 16:50:44;;;;;;;4.18;2.25;;;;;;;26.53;35.47;99995.91;5054468;28;20030;-91
2022/08/11 16:53:10;;;;;;;4.35;2.00;;;;;;;26.50;35.54;99987.69;5039577;28;20039;-91
2022/08/11 16:55:36;;;;;;;4.28;2.20;;;;;;;26.42;34.72;99981.91;5036033;28;20069;-91
2022/08/11 17:00:48;;;;;;;4.43;1.88;;;;;;;26.10;34.92;99986.94;5032716;28;20046;-90
2022/08/11 17:14:43;;;;;;;4.97;2.20;;;;;;;25.90;35.91;99989.09;5043173;28;20659;-91